Time;durP1;ratioP1;P1;durP2;ratioP2;P2;SDS_P1;SDS_P2;PMS_P1;PMS_P2;Temp;Humidity;BMP_temperature;BMP_pressure;BME280_temperature;BME280_humidity;BME280_pressure;Samples;Min_cycle;Max_cycle;Signal;HPM_P1;HPM_P2
2023/09/07 00:01:27;;;;;;;450.05;436.13;;;;;;;;;;5021853;28;20276;-88
2023/09/07 00:03:53;;;;;;;445.80;432.08;;;;;;;;;;5022309;28;20181;-88
2023/09/07 00:06:19;;;;;;;436.20;422.77;;;;;;;;;;5021764;28;20817;-89
2023/09/07 00:08:45;;;;;;;408.73;396.25;;;;;;;;;;5020119;28;20187;-88
2023/09/07 00:11:11;;;;;;;390.35;378.50;;;;;;;;;;5039905;28;20237;-88
2023/09/07 00:13:37;;;;;;;373.35;361.95;;;;;;;;;;5026051;28;20177;-88
2023/09/07 00:16:04;;;;;;;350.40;339.90;;;;;;;;;;5021398;28;20676;-90
2023/09/07 00:18:30;;;;;;;339.00;328.90;;;;;;;;;;5021072;28;20215;-89
2023/09/07 00:20:56;;;;;;;307.02;297.88;;;;;;;;;;5021417;28;20212;-88
2023/09/07 00:23:22;;;;;;;301.15;292.23;;;;;;;;;;5021449;28;20683;-87
2023/09/07 00:25:48;;;;;;;302.48;293.65;;;;;;;;;;5021108;28;20216;-87
2023/09/07 00:28:14;;;;;;;300.50;291.70;;;;;;;;;;5020473;28;20185;-88
2023/09/07 00:30:41;;;;;;;307.05;298.13;;;;;;;;;;5021293;28;20201;-89
2023/09/07 00:33:08;;;;;;;313.85;304.52;;;;;;;;;;5020925;28;20188;-88
2023/09/07 00:35:34;;;;;;;294.65;286.05;;;;;;;;;;5022148;28;20655;-87
2023/09/07 00:38:00;;;;;;;306.50;297.58;;;;;;;;;;5021819;28;20212;-87
2023/09/07 00:40:26;;;;;;;313.13;303.98;;;;;;;;;;5020887;28;20201;-88
2023/09/07 00:42:52;;;;;;;343.48;333.38;;;;;;;;;;5018961;28;20181;-88
2023/09/07 00:45:18;;;;;;;356.75;345.92;;;;;;;;;;5019787;28;20233;-89
2023/09/07 00:47:45;;;;;;;346.40;335.83;;;;;;;;;;5019055;28;20513;-91
2023/09/07 00:50:16;;;;;;;332.45;322.67;;;;;;;;;;5013110;28;20194;-90
2023/09/07 00:52:43;;;;;;;325.45;315.95;;;;;;;;;;5018291;28;20185;-91
2023/09/07 00:55:09;;;;;;;327.77;318.15;;;;;;;;;;5018587;28;20177;-87
2023/09/07 00:57:36;;;;;;;320.50;310.95;;;;;;;;;;5018685;28;20258;-88
2023/09/07 01:00:03;;;;;;;317.88;308.38;;;;;;;;;;5019722;28;20166;-87
2023/09/07 01:02:31;;;;;;;317.13;307.63;;;;;;;;;;5020641;28;20181;-88
2023/09/07 01:04:57;;;;;;;302.15;293.35;;;;;;;;;;5019237;28;20187;-88
2023/09/07 01:07:29;;;;;;;288.15;279.77;;;;;;;;;;5021709;28;20269;-92
2023/09/07 01:09:56;;;;;;;294.85;286.15;;;;;;;;;;5031422;28;20276;-91
2023/09/07 01:12:22;;;;;;;291.25;282.83;;;;;;;;;;5043175;28;20724;-91
2023/09/07 01:14:48;;;;;;;283.08;274.73;;;;;;;;;;5043943;28;20266;-93
2023/09/07 01:17:14;;;;;;;285.08;276.40;;;;;;;;;;5034248;28;20230;-91
2023/09/07 01:19:40;;;;;;;288.15;279.58;;;;;;;;;;5010697;28;20194;-92
2023/09/07 01:22:08;;;;;;;302.90;294.05;;;;;;;;;;5015199;28;20219;-90
2023/09/07 01:24:35;;;;;;;282.48;274.38;;;;;;;;;;5020431;28;20649;-91
2023/09/07 01:27:03;;;;;;;280.67;272.52;;;;;;;;;;5021850;28;20249;-92
2023/09/07 01:29:29;;;;;;;272.25;264.25;;;;;;;;;;5020367;28;20243;-91
2023/09/07 01:31:55;;;;;;;305.45;296.27;;;;;;;;;;5022759;28;20203;-91
2023/09/07 01:34:21;;;;;;;314.93;305.77;;;;;;;;;;5022259;28;20791;-91
2023/09/07 01:36:47;;;;;;;312.92;303.70;;;;;;;;;;5005082;28;20193;-91
2023/09/07 01:39:13;;;;;;;310.70;301.63;;;;;;;;;;5001781;28;20184;-93
2023/09/07 01:41:39;;;;;;;303.23;294.25;;;;;;;;;;5001613;28;20205;-92
2023/09/07 01:44:05;;;;;;;316.77;307.37;;;;;;;;;;5000257;28;20191;-92
2023/09/07 01:46:31;;;;;;;296.67;287.98;;;;;;;;;;5001075;28;20535;-91
2023/09/07 01:48:57;;;;;;;302.70;293.80;;;;;;;;;;5000903;28;20554;-91
2023/09/07 01:51:27;;;;;;;301.88;293.10;;;;;;;;;;5012253;28;20202;-92
2023/09/07 01:53:53;;;;;;;328.80;319.20;;;;;;;;;;5022468;28;20176;-91
2023/09/07 01:56:19;;;;;;;311.80;302.47;;;;;;;;;;5021672;28;20183;-92
2023/09/07 01:58:45;;;;;;;300.17;291.33;;;;;;;;;;5021319;28;20206;-93
2023/09/07 02:01:29;;;;;;;301.60;292.80;;;;;;;;;;5021320;28;20209;-92
2023/09/07 02:03:55;;;;;;;287.93;279.53;;;;;;;;;;5019366;28;20188;-91
2023/09/07 02:06:21;;;;;;;299.95;291.05;;;;;;;;;;5020798;28;20280;-91
2023/09/07 02:08:48;;;;;;;289.67;281.10;;;;;;;;;;5022147;28;20223;-91
2023/09/07 02:11:14;;;;;;;286.87;278.43;;;;;;;;;;5041336;28;20264;-92
2023/09/07 02:13:44;;;;;;;300.10;291.37;;;;;;;;;;5040726;28;20183;-91
2023/09/07 02:16:10;;;;;;;310.43;301.07;;;;;;;;;;5041198;28;20197;-91
2023/09/07 02:18:43;;;;;;;301.67;292.88;;;;;;;;;;5027336;28;20732;-92
2023/09/07 02:21:09;;;;;;;303.90;294.87;;;;;;;;;;5021288;28;20219;-91
2023/09/07 02:23:38;;;;;;;322.63;313.10;;;;;;;;;;5010067;28;20212;-91
2023/09/07 02:26:04;;;;;;;317.03;307.70;;;;;;;;;;5001556;28;20179;-92
2023/09/07 02:28:30;;;;;;;336.43;326.27;;;;;;;;;;5003728;28;20573;-92
2023/09/07 02:31:03;;;;;;;329.73;320.00;;;;;;;;;;5004185;28;20223;-91
2023/09/07 02:33:29;;;;;;;322.90;313.43;;;;;;;;;;5001501;28;20270;-92
2023/09/07 02:35:55;;;;;;;315.77;306.27;;;;;;;;;;5000395;28;20195;-92
2023/09/07 02:38:21;;;;;;;309.53;300.40;;;;;;;;;;5001258;28;20207;-91
2023/09/07 02:40:48;;;;;;;300.83;291.87;;;;;;;;;;4999376;28;20260;-91
2023/09/07 02:43:14;;;;;;;318.60;309.37;;;;;;;;;;4999885;28;20185;-91
2023/09/07 02:45:40;;;;;;;317.50;308.27;;;;;;;;;;4999553;28;20445;-92
2023/09/07 02:48:06;;;;;;;297.40;288.63;;;;;;;;;;4999432;28;20189;-91
2023/09/07 02:50:33;;;;;;;289.67;281.23;;;;;;;;;;5001482;28;20199;-89
2023/09/07 02:53:00;;;;;;;288.33;279.80;;;;;;;;;;5018607;28;20197;-90
2023/09/07 02:55:26;;;;;;;303.67;294.57;;;;;;;;;;5019729;28;20182;-91
2023/09/07 02:57:52;;;;;;;289.80;281.23;;;;;;;;;;5021877;28;20211;-92
2023/09/07 03:00:18;;;;;;;285.13;276.73;;;;;;;;;;5028269;28;20244;-92
2023/09/07 03:02:45;;;;;;;296.43;287.83;;;;;;;;;;5032118;28;20236;-92
2023/09/07 03:05:11;;;;;;;285.37;277.07;;;;;;;;;;5029442;28;20246;-90
2023/09/07 03:07:39;;;;;;;283.60;275.40;;;;;;;;;;5029830;28;20189;-94
2023/09/07 03:10:05;;;;;;;293.87;285.17;;;;;;;;;;5039965;28;20181;-90
2023/09/07 03:12:31;;;;;;;280.60;272.40;;;;;;;;;;5040519;28;20335;-91
2023/09/07 03:14:57;;;;;;;306.13;297.23;;;;;;;;;;5028515;28;20189;-90
2023/09/07 03:17:23;;;;;;;294.23;285.57;;;;;;;;;;5028858;28;20823;-92
2023/09/07 03:19:49;;;;;;;307.80;298.53;;;;;;;;;;5044691;28;20189;-91
2023/09/07 03:22:15;;;;;;;288.83;280.17;;;;;;;;;;5033455;28;20205;-91
2023/09/07 03:24:41;;;;;;;277.00;268.83;;;;;;;;;;5024021;28;20792;-90
2023/09/07 03:27:07;;;;;;;272.57;264.73;;;;;;;;;;5024758;28;20177;-91
2023/09/07 03:29:35;;;;;;;274.70;266.63;;;;;;;;;;5024488;28;20185;-90
2023/09/07 03:32:01;;;;;;;285.30;277.07;;;;;;;;;;5025044;28;20211;-91
2023/09/07 03:34:27;;;;;;;298.67;289.77;;;;;;;;;;5024078;28;20178;-91
2023/09/07 03:36:53;;;;;;;278.90;270.67;;;;;;;;;;5022437;28;20178;-92
2023/09/07 03:39:21;;;;;;;282.03;273.67;;;;;;;;;;5022886;28;20184;-92
2023/09/07 03:41:47;;;;;;;278.00;269.77;;;;;;;;;;5022888;28;20223;-90
2023/09/07 03:44:13;;;;;;;263.97;255.80;;;;;;;;;;5022553;28;20273;-89
2023/09/07 03:46:39;;;;;;;268.40;260.37;;;;;;;;;;5022840;28;20233;-92
2023/09/07 03:49:05;;;;;;;262.63;254.50;;;;;;;;;;5023277;28;20181;-91
2023/09/07 03:51:31;;;;;;;265.00;257.30;;;;;;;;;;5023091;28;20244;-92
2023/09/07 03:53:57;;;;;;;261.43;253.83;;;;;;;;;;5025774;28;20199;-92
2023/09/07 03:56:23;;;;;;;286.00;277.80;;;;;;;;;;5016877;28;20193;-92
2023/09/07 03:58:49;;;;;;;301.60;292.67;;;;;;;;;;5015654;28;20222;-92
2023/09/07 04:01:15;;;;;;;330.87;320.77;;;;;;;;;;5024127;28;20207;-92
2023/09/07 04:03:41;;;;;;;325.08;315.30;;;;;;;;;;5026692;28;20648;-90
2023/09/07 04:06:07;;;;;;;321.50;312.02;;;;;;;;;;5025767;28;20238;-93
2023/09/07 04:08:35;;;;;;;335.83;325.93;;;;;;;;;;5023740;28;20190;-92
2023/09/07 04:11:04;;;;;;;330.73;320.63;;;;;;;;;;5020079;28;20211;-91
2023/09/07 04:13:30;;;;;;;318.10;308.80;;;;;;;;;;5026765;28;20271;-92
2023/09/07 04:15:56;;;;;;;318.23;308.83;;;;;;;;;;5043283;28;20203;-90
2023/09/07 04:18:22;;;;;;;317.20;307.70;;;;;;;;;;5023738;28;20215;-90
2023/09/07 04:20:48;;;;;;;312.27;303.13;;;;;;;;;;5023031;28;20218;-92
2023/09/07 04:23:14;;;;;;;316.87;307.43;;;;;;;;;;5022444;28;20199;-92
2023/09/07 04:25:40;;;;;;;325.40;315.67;;;;;;;;;;5021816;28;20277;-90
2023/09/07 04:28:06;;;;;;;333.83;323.43;;;;;;;;;;5023207;28;20191;-90
2023/09/07 04:30:39;;;;;;;337.13;326.93;;;;;;;;;;5013339;28;20215;-90
2023/09/07 04:33:05;;;;;;;315.30;305.80;;;;;;;;;;5021913;28;20199;-91
2023/09/07 04:35:32;;;;;;;323.37;313.57;;;;;;;;;;5020405;28;20343;-90
2023/09/07 04:37:58;;;;;;;330.37;320.57;;;;;;;;;;5017062;28;20650;-89
2023/09/07 04:40:24;;;;;;;340.97;330.73;;;;;;;;;;5001091;28;20248;-89
2023/09/07 04:42:50;;;;;;;320.33;310.70;;;;;;;;;;5008176;28;20691;-90
2023/09/07 04:45:17;;;;;;;326.97;317.37;;;;;;;;;;5021785;28;20199;-90
2023/09/07 04:47:43;;;;;;;322.93;313.23;;;;;;;;;;5021304;28;20190;-90
2023/09/07 04:50:09;;;;;;;311.20;301.93;;;;;;;;;;5023931;28;20192;-92
2023/09/07 04:52:35;;;;;;;301.97;292.77;;;;;;;;;;5021830;28;20190;-89
2023/09/07 04:55:02;;;;;;;298.60;289.63;;;;;;;;;;5022282;28;20189;-91
2023/09/07 04:57:28;;;;;;;310.87;301.47;;;;;;;;;;5019847;28;20209;-91
2023/09/07 04:59:54;;;;;;;307.60;298.23;;;;;;;;;;5020816;28;20281;-90
2023/09/07 05:02:20;;;;;;;316.83;307.33;;;;;;;;;;5021869;28;20181;-91
2023/09/07 05:04:46;;;;;;;316.37;306.73;;;;;;;;;;5021405;28;20267;-93
2023/09/07 05:07:12;;;;;;;313.60;303.97;;;;;;;;;;5020594;28;20215;-90
2023/09/07 05:09:38;;;;;;;296.00;287.10;;;;;;;;;;5019817;28;20195;-91
2023/09/07 05:12:04;;;;;;;314.67;305.20;;;;;;;;;;5020856;28;20580;-90
2023/09/07 05:14:30;;;;;;;311.37;302.13;;;;;;;;;;5021026;28;20232;-90
2023/09/07 05:16:56;;;;;;;292.63;284.13;;;;;;;;;;5021185;28;20188;-90
2023/09/07 05:19:22;;;;;;;287.13;278.80;;;;;;;;;;5020596;28;20182;-92
2023/09/07 05:21:49;;;;;;;285.50;277.07;;;;;;;;;;5020321;28;20671;-90
2023/09/07 05:24:15;;;;;;;270.90;263.10;;;;;;;;;;5019994;28;20170;-88
2023/09/07 05:26:43;;;;;;;262.80;254.83;;;;;;;;;;5020488;28;20705;-89
2023/09/07 05:29:09;;;;;;;242.93;235.70;;;;;;;;;;5019935;28;20182;-90
2023/09/07 05:31:35;;;;;;;237.93;230.90;;;;;;;;;;5016890;28;20201;-89
2023/09/07 05:34:01;;;;;;;234.53;227.63;;;;;;;;;;5020232;28;20667;-90
2023/09/07 05:36:27;;;;;;;233.07;225.87;;;;;;;;;;5019130;28;20178;-88
2023/09/07 05:38:53;;;;;;;230.20;223.20;;;;;;;;;;5019768;28;20214;-90
2023/09/07 05:41:19;;;;;;;215.13;208.73;;;;;;;;;;5017181;28;20233;-89
2023/09/07 05:43:45;;;;;;;234.47;227.67;;;;;;;;;;5002429;28;20179;-89
2023/09/07 05:46:11;;;;;;;233.83;226.80;;;;;;;;;;5001773;28;20182;-91
2023/09/07 05:48:37;;;;;;;240.77;233.77;;;;;;;;;;5004392;28;20685;-90
2023/09/07 05:51:03;;;;;;;238.93;231.93;;;;;;;;;;5017086;28;20275;-89
2023/09/07 05:53:29;;;;;;;240.73;233.83;;;;;;;;;;5000378;28;20186;-88
2023/09/07 05:55:55;;;;;;;261.97;254.27;;;;;;;;;;5017344;28;20183;-86
2023/09/07 05:58:21;;;;;;;244.80;237.73;;;;;;;;;;5000361;28;20221;-86
2023/09/07 06:00:47;;;;;;;251.03;243.37;;;;;;;;;;5008038;28;20214;-87
2023/09/07 06:03:13;;;;;;;241.50;234.13;;;;;;;;;;5018269;28;20201;-88
2023/09/07 06:05:39;;;;;;;266.57;258.77;;;;;;;;;;5018844;28;20184;-93
2023/09/07 06:08:06;;;;;;;275.43;267.50;;;;;;;;;;5019596;28;20174;-89
2023/09/07 06:10:32;;;;;;;269.53;261.30;;;;;;;;;;5034322;28;20217;-88
2023/09/07 06:12:58;;;;;;;280.30;271.63;;;;;;;;;;5038565;28;20181;-88
2023/09/07 06:15:24;;;;;;;268.97;260.90;;;;;;;;;;5017543;28;20189;-91
2023/09/07 06:17:50;;;;;;;269.20;261.30;;;;;;;;;;4999265;28;20207;-89
2023/09/07 06:20:18;;;;;;;258.53;250.70;;;;;;;;;;4996498;28;20244;-89
2023/09/07 06:22:45;;;;;;;272.57;264.53;;;;;;;;;;5004402;28;20213;-89
2023/09/07 06:25:11;;;;;;;270.97;263.10;;;;;;;;;;5006708;28;20185;-89
2023/09/07 06:27:37;;;;;;;270.17;262.27;;;;;;;;;;5002465;28;20202;-90
2023/09/07 06:30:04;;;;;;;284.93;276.57;;;;;;;;;;5006393;28;20297;-87
2023/09/07 06:32:30;;;;;;;287.10;278.50;;;;;;;;;;5006493;28;20206;-88
2023/09/07 06:34:56;;;;;;;287.87;279.50;;;;;;;;;;5005301;28;20259;-88
2023/09/07 06:37:24;;;;;;;294.93;285.87;;;;;;;;;;5004835;28;20250;-89
2023/09/07 06:39:50;;;;;;;325.20;315.73;;;;;;;;;;5005292;28;20234;-89
2023/09/07 06:42:16;;;;;;;339.60;329.70;;;;;;;;;;5008231;28;20708;-90
2023/09/07 06:44:42;;;;;;;336.33;326.27;;;;;;;;;;5005492;28;20227;-89
2023/09/07 06:47:09;;;;;;;297.20;288.43;;;;;;;;;;5007616;28;20676;-89
2023/09/07 06:49:35;;;;;;;258.45;250.85;;;;;;;;;;5002413;28;20268;-89
2023/09/07 06:52:02;;;;;;;273.65;265.55;;;;;;;;;;5004072;28;20215;-90
2023/09/07 06:54:28;;;;;;;262.55;254.90;;;;;;;;;;5010017;28;20196;-89
2023/09/07 06:56:54;;;;;;;269.05;261.27;;;;;;;;;;5012181;28;20180;-91
2023/09/07 06:59:20;;;;;;;271.42;263.58;;;;;;;;;;5004726;28;20469;-90
2023/09/07 07:01:46;;;;;;;278.55;270.40;;;;;;;;;;5011152;28;20245;-87
2023/09/07 07:04:12;;;;;;;292.70;284.20;;;;;;;;;;5008745;28;20301;-91
2023/09/07 07:06:39;;;;;;;297.20;288.52;;;;;;;;;;5012427;28;20255;-89
2023/09/07 07:09:06;;;;;;;309.90;301.02;;;;;;;;;;5016662;28;20189;-88
2023/09/07 07:11:32;;;;;;;312.42;303.33;;;;;;;;;;5016980;28;20223;-90
2023/09/07 07:13:58;;;;;;;306.00;296.50;;;;;;;;;;5009589;28;20194;-88
2023/09/07 07:16:24;;;;;;;343.63;333.42;;;;;;;;;;5007249;28;20189;-88
2023/09/07 07:18:50;;;;;;;350.83;340.42;;;;;;;;;;5008687;28;20259;-90
2023/09/07 07:21:16;;;;;;;370.60;359.65;;;;;;;;;;5006063;28;20268;-89
2023/09/07 07:23:42;;;;;;;366.95;356.15;;;;;;;;;;5004437;28;20209;-90
2023/09/07 07:26:08;;;;;;;396.15;383.98;;;;;;;;;;5005688;28;20537;-88
2023/09/07 07:28:35;;;;;;;386.50;375.02;;;;;;;;;;5002335;28;20236;-90
2023/09/07 07:31:07;;;;;;;369.50;358.58;;;;;;;;;;5002232;28;20217;-88
2023/09/07 07:33:33;;;;;;;399.77;387.73;;;;;;;;;;5006679;28;20189;-90
2023/09/07 07:35:59;;;;;;;396.58;384.67;;;;;;;;;;5007297;28;20536;-87
2023/09/07 07:38:25;;;;;;;415.45;402.88;;;;;;;;;;5005608;28;20252;-89
2023/09/07 07:40:53;;;;;;;397.20;385.27;;;;;;;;;;5007257;28;20312;-92
2023/09/07 07:43:19;;;;;;;418.65;406.17;;;;;;;;;;5009718;28;20205;-89
2023/09/07 07:45:45;;;;;;;440.77;427.27;;;;;;;;;;5005547;28;20227;-88
2023/09/07 07:48:11;;;;;;;443.65;430.08;;;;;;;;;;5003273;28;20193;-89
2023/09/07 07:50:40;;;;;;;433.42;420.02;;;;;;;;;;5006359;28;21168;-88
2023/09/07 07:53:06;;;;;;;432.33;419.15;;;;;;;;;;5007117;28;20236;-89
2023/09/07 07:55:38;;;;;;;465.27;450.80;;;;;;;;;;5005086;28;20196;-89
2023/09/07 07:58:07;;;;;;;445.88;432.20;;;;;;;;;;5009652;28;20222;-87
2023/09/07 08:00:34;;;;;;;441.13;427.55;;;;;;;;;;5012878;28;20476;-90
2023/09/07 08:03:02;;;;;;;464.75;450.35;;;;;;;;;;5014646;28;20188;-88
2023/09/07 08:05:28;;;;;;;492.10;476.90;;;;;;;;;;5012491;28;20190;-89
2023/09/07 08:07:55;;;;;;;522.22;505.38;;;;;;;;;;5011002;28;20197;-88
2023/09/07 08:10:21;;;;;;;514.70;498.20;;;;;;;;;;5012965;28;20223;-90
2023/09/07 08:12:46;;;;;;;524.55;507.77;;;;;;;;;;5012700;28;20181;-88
2023/09/07 08:15:14;;;;;;;543.15;525.50;;;;;;;;;;5011247;28;20662;-90
2023/09/07 08:17:40;;;;;;;541.42;523.78;;;;;;;;;;5011227;28;20205;-88
2023/09/07 08:20:08;;;;;;;565.50;546.78;;;;;;;;;;5013960;28;20192;-89
2023/09/07 08:22:36;;;;;;;579.58;559.75;;;;;;;;;;5015715;28;20267;-88
2023/09/07 08:25:02;;;;;;;582.72;563.28;;;;;;;;;;5014015;28;20306;-89
2023/09/07 08:27:28;;;;;;;592.90;572.50;;;;;;;;;;5011860;28;20178;-90
2023/09/07 08:29:54;;;;;;;590.38;570.03;;;;;;;;;;5012323;28;20271;-88
2023/09/07 08:32:21;;;;;;;602.10;579.67;;;;;;;;;;5012372;28;20197;-90
2023/09/07 08:34:47;;;;;;;608.40;587.15;;;;;;;;;;5013347;28;20184;-91
2023/09/07 08:37:13;;;;;;;1323.72;812.25;;;;;;;;;;5010564;28;20695;-89
2023/09/07 08:39:42;;;;;;;1999.90;999.90;;;;;;;;;;5013012;28;20208;-88
2023/09/07 08:42:09;;;;;;;1999.90;999.90;;;;;;;;;;5012158;28;20231;-88
2023/09/07 08:44:37;;;;;;;1999.90;999.90;;;;;;;;;;5013602;28;20322;-88
2023/09/07 08:47:04;;;;;;;1999.90;999.90;;;;;;;;;;5009468;28;20192;-88
2023/09/07 08:49:32;;;;;;;1999.90;999.90;;;;;;;;;;5011532;28;20185;-91
2023/09/07 08:51:59;;;;;;;1999.90;999.90;;;;;;;;;;5012383;28;20217;-91
2023/09/07 08:54:25;;;;;;;1999.90;999.90;;;;;;;;;;5010703;28;20652;-89
2023/09/07 08:56:51;;;;;;;1999.90;999.90;;;;;;;;;;5009064;28;20185;-88
2023/09/07 08:59:18;;;;;;;1999.90;999.90;;;;;;;;;;5009301;28;20201;-91
2023/09/07 09:01:44;;;;;;;1999.90;999.90;;;;;;;;;;5010817;28;20210;-89
2023/09/07 09:04:10;;;;;;;1999.90;999.90;;;;;;;;;;5009743;28;20182;-89
2023/09/07 09:06:36;;;;;;;1999.90;999.90;;;;;;;;;;5009129;28;20186;-89
2023/09/07 09:09:05;;;;;;;1999.90;999.90;;;;;;;;;;5012774;28;20185;-87
2023/09/07 09:11:31;;;;;;;1999.90;999.90;;;;;;;;;;5008893;28;20213;-89
2023/09/07 09:13:57;;;;;;;1999.90;999.90;;;;;;;;;;5012375;28;20189;-90
2023/09/07 09:16:23;;;;;;;1999.90;999.90;;;;;;;;;;5007662;28;20185;-89
2023/09/07 09:18:53;;;;;;;1999.90;999.90;;;;;;;;;;5008911;28;20622;-89
2023/09/07 09:21:20;;;;;;;1999.90;999.90;;;;;;;;;;5005795;28;20221;-88
2023/09/07 09:23:47;;;;;;;1999.90;999.90;;;;;;;;;;5010555;28;20185;-89
2023/09/07 09:26:13;;;;;;;1999.90;999.90;;;;;;;;;;5007828;28;20193;-89
2023/09/07 09:28:39;;;;;;;1999.90;999.90;;;;;;;;;;5004983;28;20197;-89
2023/09/07 09:31:12;;;;;;;1999.90;999.90;;;;;;;;;;5009783;28;20237;-88
2023/09/07 09:33:38;;;;;;;1999.90;999.90;;;;;;;;;;5011578;28;20170;-88
2023/09/07 09:36:04;;;;;;;1999.90;999.90;;;;;;;;;;5007382;28;20236;-88
2023/09/07 09:38:32;;;;;;;1999.90;999.90;;;;;;;;;;5005887;28;20360;-89
2023/09/07 09:40:58;;;;;;;1999.90;999.90;;;;;;;;;;5009864;28;20194;-89
2023/09/07 09:43:25;;;;;;;1999.90;999.90;;;;;;;;;;5010705;28;20193;-89
2023/09/07 09:45:52;;;;;;;1999.90;999.90;;;;;;;;;;5007100;28;20193;-88
2023/09/07 09:48:22;;;;;;;1999.90;999.90;;;;;;;;;;5008231;28;20193;-89
2023/09/07 09:50:49;;;;;;;1999.90;999.90;;;;;;;;;;5007759;28;20202;-89
2023/09/07 09:53:18;;;;;;;1999.90;999.90;;;;;;;;;;5008293;28;20726;-91
2023/09/07 09:55:46;;;;;;;1999.90;999.90;;;;;;;;;;5012093;28;20212;-93
2023/09/07 09:58:12;;;;;;;1999.90;999.90;;;;;;;;;;5008171;28;20675;-90
2023/09/07 10:00:38;;;;;;;1999.90;999.90;;;;;;;;;;5010418;28;20288;-88
2023/09/07 10:03:08;;;;;;;1999.90;999.90;;;;;;;;;;5009166;28;20189;-88
2023/09/07 10:05:34;;;;;;;1999.90;999.90;;;;;;;;;;5011097;28;20184;-90
2023/09/07 10:08:05;;;;;;;1999.90;999.90;;;;;;;;;;5008255;28;20227;-88
2023/09/07 10:10:35;;;;;;;1999.90;999.90;;;;;;;;;;5010000;28;20794;-88
2023/09/07 10:13:02;;;;;;;1999.90;999.90;;;;;;;;;;5009100;28;20189;-90
2023/09/07 10:15:29;;;;;;;1999.90;999.90;;;;;;;;;;5011019;28;20182;-91
2023/09/07 10:18:04;;;;;;;1999.90;999.90;;;;;;;;;;5008860;28;20221;-90
2023/09/07 10:20:35;;;;;;;1999.90;999.90;;;;;;;;;;5009010;28;20239;-90
2023/09/07 10:23:05;;;;;;;1999.90;999.90;;;;;;;;;;5010637;28;20255;-88
2023/09/07 10:25:32;;;;;;;1999.90;999.90;;;;;;;;;;5009900;28;20174;-89
2023/09/07 10:27:59;;;;;;;1999.90;999.90;;;;;;;;;;5006728;28;20189;-89
2023/09/07 10:30:25;;;;;;;1999.90;999.90;;;;;;;;;;5013171;28;20205;-90
2023/09/07 10:32:51;;;;;;;1999.90;999.90;;;;;;;;;;5012019;28;20194;-89
2023/09/07 10:35:21;;;;;;;1999.90;999.90;;;;;;;;;;5010678;28;20536;-89
2023/09/07 10:37:48;;;;;;;1999.90;999.90;;;;;;;;;;5010417;28;20268;-90
2023/09/07 10:40:19;;;;;;;1999.90;999.90;;;;;;;;;;5009803;28;20178;-91
2023/09/07 10:42:45;;;;;;;1999.90;999.90;;;;;;;;;;5013072;28;20501;-88
2023/09/07 10:45:13;;;;;;;1999.90;999.90;;;;;;;;;;5008990;28;20193;-90
2023/09/07 10:47:43;;;;;;;1999.90;999.90;;;;;;;;;;5009168;28;20185;-88
2023/09/07 10:50:12;;;;;;;1999.90;999.90;;;;;;;;;;5012173;28;20178;-91
2023/09/07 10:52:39;;;;;;;1999.90;999.90;;;;;;;;;;5008682;28;20675;-90
2023/09/07 10:55:05;;;;;;;1999.90;999.90;;;;;;;;;;5007598;28;20193;-92
2023/09/07 10:57:31;;;;;;;1999.90;999.90;;;;;;;;;;5005682;28;20287;-89
2023/09/07 10:59:57;;;;;;;1999.90;999.90;;;;;;;;;;5009248;28;20235;-89
2023/09/07 11:02:23;;;;;;;1999.90;999.90;;;;;;;;;;5004499;28;20247;-88
2023/09/07 11:04:49;;;;;;;1999.90;999.90;;;;;;;;;;5009070;28;20280;-89
2023/09/07 11:07:15;;;;;;;1999.90;999.90;;;;;;;;;;5007302;28;20192;-89
2023/09/07 11:09:42;;;;;;;1999.90;999.90;;;;;;;;;;5007111;28;20395;-90
2023/09/07 11:12:09;;;;;;;1999.90;999.90;;;;;;;;;;5009947;28;20296;-89
2023/09/07 11:14:35;;;;;;;1999.90;999.90;;;;;;;;;;5009044;28;20182;-90
2023/09/07 11:17:03;;;;;;;1999.90;999.90;;;;;;;;;;5016909;28;20252;-91
2023/09/07 11:19:32;;;;;;;1999.90;999.90;;;;;;;;;;5017456;28;20213;-93
2023/09/07 11:21:58;;;;;;;1999.90;999.90;;;;;;;;;;5015857;28;20259;-90
2023/09/07 11:24:25;;;;;;;1999.90;999.90;;;;;;;;;;5010823;28;21758;-89
2023/09/07 11:26:52;;;;;;;1999.90;999.90;;;;;;;;;;5006951;28;20178;-91
2023/09/07 11:29:21;;;;;;;1999.90;999.90;;;;;;;;;;5009080;28;20220;-89
2023/09/07 11:31:47;;;;;;;1999.90;999.90;;;;;;;;;;5010802;28;20205;-89
2023/09/07 11:34:14;;;;;;;1999.90;999.90;;;;;;;;;;5008457;28;20189;-90
2023/09/07 11:36:41;;;;;;;1999.90;999.90;;;;;;;;;;5008956;28;20276;-87
2023/09/07 11:39:12;;;;;;;1999.90;999.90;;;;;;;;;;5013140;28;20590;-89
2023/09/07 11:41:39;;;;;;;1999.90;999.90;;;;;;;;;;5008441;28;20280;-89
2023/09/07 11:44:05;;;;;;;1999.90;999.90;;;;;;;;;;5012806;28;20213;-89
2023/09/07 11:46:31;;;;;;;1999.90;999.90;;;;;;;;;;5013216;28;20284;-89
2023/09/07 11:48:57;;;;;;;1999.90;999.90;;;;;;;;;;5012660;28;21031;-88
2023/09/07 11:51:23;;;;;;;1999.90;999.90;;;;;;;;;;5010868;28;20202;-90
2023/09/07 11:53:49;;;;;;;1999.90;999.90;;;;;;;;;;5011256;28;21775;-89
2023/09/07 11:56:15;;;;;;;1999.90;999.90;;;;;;;;;;5013110;28;20264;-89
2023/09/07 11:58:43;;;;;;;1999.90;999.90;;;;;;;;;;5008472;28;20209;-91
2023/09/07 12:01:09;;;;;;;1999.90;999.90;;;;;;;;;;5012942;28;20236;-87
2023/09/07 12:03:35;;;;;;;1999.90;999.90;;;;;;;;;;5011539;28;20188;-88
2023/09/07 12:06:02;;;;;;;1999.90;999.90;;;;;;;;;;5011575;28;20185;-90
2023/09/07 12:08:28;;;;;;;1999.90;999.90;;;;;;;;;;5007305;28;20190;-90
2023/09/07 12:10:54;;;;;;;1999.90;999.90;;;;;;;;;;5012609;28;20276;-90
2023/09/07 12:13:20;;;;;;;1999.90;999.90;;;;;;;;;;5011325;28;20243;-90
2023/09/07 12:15:46;;;;;;;1999.90;999.90;;;;;;;;;;5012677;28;20275;-89
2023/09/07 12:18:12;;;;;;;1999.90;999.90;;;;;;;;;;5011246;28;20296;-89
2023/09/07 12:20:38;;;;;;;1999.90;999.90;;;;;;;;;;5008477;28;20244;-88
2023/09/07 12:23:04;;;;;;;1999.90;999.90;;;;;;;;;;5011504;28;20212;-89
2023/09/07 12:25:32;;;;;;;1999.90;999.90;;;;;;;;;;5011980;28;20281;-90
2023/09/07 12:27:58;;;;;;;1999.90;999.90;;;;;;;;;;5011302;28;20599;-88
2023/09/07 12:30:24;;;;;;;1999.90;999.90;;;;;;;;;;5010323;28;20300;-88
2023/09/07 12:32:50;;;;;;;1999.90;999.90;;;;;;;;;;5014171;28;20208;-90
2023/09/07 12:35:16;;;;;;;1999.90;999.90;;;;;;;;;;5009536;28;20233;-90
2023/09/07 12:37:42;;;;;;;1999.90;999.90;;;;;;;;;;5007421;28;20228;-87
2023/09/07 12:40:12;;;;;;;1999.90;999.90;;;;;;;;;;5012441;28;20190;-89
2023/09/07 12:42:42;;;;;;;1999.90;999.90;;;;;;;;;;5012660;28;20182;-89
2023/09/07 12:45:12;;;;;;;1999.90;999.90;;;;;;;;;;5012223;28;20181;-89
2023/09/07 12:47:38;;;;;;;1999.90;999.90;;;;;;;;;;5009658;28;20583;-89
2023/09/07 12:50:05;;;;;;;1999.90;999.90;;;;;;;;;;5014359;28;20220;-88
2023/09/07 12:52:31;;;;;;;1999.90;999.90;;;;;;;;;;5011478;28;20249;-89
2023/09/07 12:54:57;;;;;;;1999.90;999.90;;;;;;;;;;5009460;28;20213;-90
2023/09/07 12:57:23;;;;;;;1999.90;999.90;;;;;;;;;;5010064;28;20209;-88
2023/09/07 12:59:49;;;;;;;1999.90;999.90;;;;;;;;;;5011342;28;20178;-90
2023/09/07 13:02:15;;;;;;;1999.90;999.90;;;;;;;;;;5010044;28;21080;-88
2023/09/07 13:04:41;;;;;;;1999.90;999.90;;;;;;;;;;5011274;28;20193;-89
2023/09/07 13:07:07;;;;;;;1999.90;999.90;;;;;;;;;;5010265;28;20231;-88
2023/09/07 13:09:33;;;;;;;1999.90;999.90;;;;;;;;;;5008115;28;20188;-89
2023/09/07 13:11:59;;;;;;;1999.90;999.90;;;;;;;;;;5011828;28;20223;-89
2023/09/07 13:14:25;;;;;;;1999.90;999.90;;;;;;;;;;5011179;28;20253;-91
2023/09/07 13:16:51;;;;;;;1999.90;999.90;;;;;;;;;;5008639;28;20227;-90
2023/09/07 13:19:17;;;;;;;1999.90;999.90;;;;;;;;;;5013162;28;20213;-88
2023/09/07 13:21:45;;;;;;;1999.90;999.90;;;;;;;;;;5014897;28;20983;-90
2023/09/07 13:24:11;;;;;;;1999.90;999.90;;;;;;;;;;5014243;28;20169;-89
2023/09/07 13:26:37;;;;;;;1999.90;999.90;;;;;;;;;;5008313;28;20312;-88
2023/09/07 13:29:03;;;;;;;1999.90;999.90;;;;;;;;;;5011205;28;20502;-87
2023/09/07 13:31:29;;;;;;;1999.90;999.90;;;;;;;;;;5010246;28;20764;-87
2023/09/07 13:33:55;;;;;;;1999.90;999.90;;;;;;;;;;5010145;28;20189;-90
2023/09/07 13:36:21;;;;;;;1999.90;999.90;;;;;;;;;;5009564;28;20182;-87
2023/09/07 13:38:47;;;;;;;1999.90;999.90;;;;;;;;;;5009832;28;20831;-89
2023/09/07 13:41:13;;;;;;;1999.90;999.90;;;;;;;;;;5009578;28;20335;-88
2023/09/07 13:43:39;;;;;;;1999.90;999.90;;;;;;;;;;5010735;28;20181;-90
2023/09/07 13:46:05;;;;;;;1999.90;999.90;;;;;;;;;;5010943;28;20177;-87